Terminal Aerodrome Forecast
Issued by NWS Springfield, MO

Home | Current Version | Previous Version | Text Only | Print | Product List | Glossary On
Versions: 1 2 3 4 5 6 7 8 9 10 11 12 13 14 15 16 17 18 19 20 21
000
FTUS43 KSGF 201143 CCA
TAFSGF
TAF COR
KSGF 201143Z 2012/2112 19005KT P6SM TSRA BKN090CB
      TEMPO 2012/2013 27015G35KT
     FM201500 20006KT 6SM -TSRA BKN060CB OVC130
     FM201800 24006KT P6SM BKN110
     FM202100 25006KT P6SM BKN100 PROB30 2021/2101 4SM -TSRA
      OVC025CB=

USA.gov is the U.S. government's official web portal to all federal, state and local government web resources and services.